Time;durP1;ratioP1;P1;durP2;ratioP2;P2;SDS_P1;SDS_P2;PMS_P1;PMS_P2;Temp;Humidity;BMP_temperature;BMP_pressure;BME280_temperature;BME280_humidity;BME280_pressure;Samples;Min_cycle;Max_cycle;Signal;HPM_P1;HPM_P2
2023/07/17 00:00:40;;;;;;;6.10;3.27;;;;;;;;;;4904438;29;20227;-77
2023/07/17 00:03:05;;;;;;;4.33;2.80;;;;;;;;;;4908111;29;20211;-77
2023/07/17 00:05:30;;;;;;;3.43;2.77;;;;;;;;;;4920469;29;20196;-76
2023/07/17 00:07:56;;;;;;;3.53;2.83;;;;;;;;;;4899087;29;20197;-77
2023/07/17 00:10:21;;;;;;;4.37;2.90;;;;;;;;;;4912539;29;20218;-77
2023/07/17 00:12:46;;;;;;;4.70;2.90;;;;;;;;;;4909929;29;20185;-77
2023/07/17 00:15:12;;;;;;;5.37;3.20;;;;;;;;;;4898813;29;20179;-77
2023/07/17 00:17:37;;;;;;;2.40;2.20;;;;;;;;;;4915690;29;20179;-76
2023/07/17 00:20:06;;;;;;;5.03;2.90;;;;;;;;;;4914273;29;20334;-77
2023/07/17 00:22:31;;;;;;;4.67;2.60;;;;;;;;;;4897827;29;20208;-77
2023/07/17 00:24:56;;;;;;;4.73;3.00;;;;;;;;;;4914611;29;20190;-77
2023/07/17 00:27:22;;;;;;;3.70;2.63;;;;;;;;;;4905053;29;20261;-77
2023/07/17 00:29:47;;;;;;;3.43;2.80;;;;;;;;;;4898328;29;20217;-76
2023/07/17 00:32:13;;;;;;;4.00;2.47;;;;;;;;;;4911168;29;20179;-77
2023/07/17 00:34:39;;;;;;;4.63;2.77;;;;;;;;;;4915493;29;20236;-77
2023/07/17 00:37:04;;;;;;;3.13;2.60;;;;;;;;;;4915211;29;20256;-77
2023/07/17 00:39:29;;;;;;;3.07;2.70;;;;;;;;;;4924924;29;20229;-76
2023/07/17 00:41:54;;;;;;;4.70;2.80;;;;;;;;;;4899829;29;20186;-76
2023/07/17 00:44:20;;;;;;;4.00;3.07;;;;;;;;;;4920980;29;20183;-77
2023/07/17 00:46:46;;;;;;;4.33;2.43;;;;;;;;;;4928994;29;20209;-76
2023/07/17 00:49:11;;;;;;;4.27;2.77;;;;;;;;;;4912507;29;20199;-77
2023/07/17 00:51:37;;;;;;;3.50;2.60;;;;;;;;;;4905584;29;20215;-76
2023/07/17 00:54:03;;;;;;;3.20;2.90;;;;;;;;;;4924655;29;20262;-76
2023/07/17 00:56:28;;;;;;;4.80;3.03;;;;;;;;;;4913098;29;20178;-77
2023/07/17 00:58:54;;;;;;;4.33;3.10;;;;;;;;;;4913640;29;20226;-76
2023/07/17 01:01:19;;;;;;;4.47;2.77;;;;;;;;;;4907259;29;20226;-77
2023/07/17 01:03:44;;;;;;;3.57;2.80;;;;;;;;;;4907168;29;20191;-76
2023/07/17 01:06:10;;;;;;;3.63;2.67;;;;;;;;;;4912201;29;20198;-77
2023/07/17 01:08:35;;;;;;;5.13;2.97;;;;;;;;;;4913574;29;20234;-76
2023/07/17 01:11:01;;;;;;;5.13;3.03;;;;;;;;;;4922503;29;20206;-77
2023/07/17 01:13:26;;;;;;;2.90;2.60;;;;;;;;;;4912231;29;20210;-76
2023/07/17 01:15:51;;;;;;;3.80;2.80;;;;;;;;;;4920249;29;20182;-76
2023/07/17 01:18:16;;;;;;;4.37;2.73;;;;;;;;;;4904661;29;20179;-76
2023/07/17 01:20:42;;;;;;;6.70;3.13;;;;;;;;;;4910772;29;20281;-77
2023/07/17 01:23:07;;;;;;;2.53;2.33;;;;;;;;;;4915559;29;20206;-77
2023/07/17 01:25:32;;;;;;;3.40;2.70;;;;;;;;;;4906765;29;20172;-76
2023/07/17 01:27:58;;;;;;;3.33;3.03;;;;;;;;;;4904962;29;20198;-77
2023/07/17 01:30:23;;;;;;;4.20;3.00;;;;;;;;;;4900705;29;20190;-77
2023/07/17 01:32:48;;;;;;;5.63;3.40;;;;;;;;;;4913269;29;20265;-76
2023/07/17 01:35:14;;;;;;;5.03;3.67;;;;;;;;;;4896364;29;20187;-77
2023/07/17 01:37:39;;;;;;;4.03;2.60;;;;;;;;;;4892401;29;20175;-76
2023/07/17 01:40:05;;;;;;;3.03;2.73;;;;;;;;;;4915581;29;20224;-76
2023/07/17 01:42:30;;;;;;;4.00;2.87;;;;;;;;;;4907245;29;20209;-76
2023/07/17 01:44:56;;;;;;;6.27;2.87;;;;;;;;;;4905341;29;20180;-77
2023/07/17 01:47:21;;;;;;;4.10;2.90;;;;;;;;;;4898500;29;20191;-77
2023/07/17 01:49:46;;;;;;;5.00;3.00;;;;;;;;;;4913101;29;20194;-76
2023/07/17 01:52:12;;;;;;;5.63;3.53;;;;;;;;;;4912794;29;20175;-76
2023/07/17 01:54:37;;;;;;;4.67;2.67;;;;;;;;;;4920980;29;20185;-76
2023/07/17 01:57:03;;;;;;;3.93;2.70;;;;;;;;;;4923521;29;20186;-76
2023/07/17 01:59:28;;;;;;;3.90;3.00;;;;;;;;;;4909682;29;20234;-77
2023/07/17 02:01:53;;;;;;;3.53;2.70;;;;;;;;;;4898992;29;20194;-76
2023/07/17 02:04:18;;;;;;;4.87;4.13;;;;;;;;;;4888965;29;20191;-76
2023/07/17 02:06:44;;;;;;;3.37;3.07;;;;;;;;;;4890833;29;20199;-76
2023/07/17 02:09:09;;;;;;;4.87;2.93;;;;;;;;;;4892948;29;20190;-76
2023/07/17 02:11:34;;;;;;;5.23;2.70;;;;;;;;;;4904985;29;20227;-76
2023/07/17 02:13:59;;;;;;;7.43;3.20;;;;;;;;;;4905416;29;20187;-76
2023/07/17 02:16:24;;;;;;;4.47;3.10;;;;;;;;;;4894303;29;20193;-76
2023/07/17 02:18:50;;;;;;;3.83;2.80;;;;;;;;;;4904913;29;20186;-76
2023/07/17 02:21:15;;;;;;;3.97;2.93;;;;;;;;;;4903808;29;20193;-76
2023/07/17 02:23:40;;;;;;;4.83;3.27;;;;;;;;;;4891418;29;20229;-76
2023/07/17 02:26:06;;;;;;;3.67;2.60;;;;;;;;;;4893876;29;20217;-76
2023/07/17 02:28:32;;;;;;;3.60;2.77;;;;;;;;;;4893706;29;20222;-76
2023/07/17 02:30:57;;;;;;;3.13;2.70;;;;;;;;;;4905747;29;20238;-76
2023/07/17 02:33:22;;;;;;;6.60;3.77;;;;;;;;;;4889712;29;20238;-76
2023/07/17 02:35:47;;;;;;;4.53;2.93;;;;;;;;;;4908130;29;20182;-76
2023/07/17 02:38:13;;;;;;;3.53;2.83;;;;;;;;;;4908823;29;20186;-76
2023/07/17 02:40:38;;;;;;;5.63;3.30;;;;;;;;;;4912323;29;20242;-76
2023/07/17 02:43:05;;;;;;;3.53;2.73;;;;;;;;;;4893467;29;20186;-76
2023/07/17 02:45:30;;;;;;;4.90;3.13;;;;;;;;;;4897733;29;20194;-76
2023/07/17 02:47:56;;;;;;;4.70;3.03;;;;;;;;;;4901449;29;20189;-76
2023/07/17 02:50:21;;;;;;;5.37;2.83;;;;;;;;;;4914406;29;20204;-76
2023/07/17 02:52:46;;;;;;;4.00;3.00;;;;;;;;;;4909798;29;20224;-76
2023/07/17 02:55:11;;;;;;;9.10;3.60;;;;;;;;;;4901502;29;20229;-76
2023/07/17 02:57:37;;;;;;;5.20;3.23;;;;;;;;;;4897881;29;20204;-76
2023/07/17 03:00:08;;;;;;;6.60;3.20;;;;;;;;;;4895328;29;20248;-76
2023/07/17 03:02:33;;;;;;;3.90;3.50;;;;;;;;;;4889531;29;20233;-76
2023/07/17 03:04:58;;;;;;;4.67;3.30;;;;;;;;;;4889441;29;20177;-76
2023/07/17 03:07:23;;;;;;;9.47;3.80;;;;;;;;;;4889838;29;20173;-76
2023/07/17 03:09:48;;;;;;;5.57;3.00;;;;;;;;;;4894100;29;20252;-76
2023/07/17 03:12:14;;;;;;;6.77;3.40;;;;;;;;;;4902707;29;20182;-76
2023/07/17 03:14:39;;;;;;;6.87;4.20;;;;;;;;;;4890366;29;20192;-76
2023/07/17 03:17:04;;;;;;;5.47;3.20;;;;;;;;;;4895256;29;20189;-76
2023/07/17 03:19:29;;;;;;;4.57;3.10;;;;;;;;;;4899018;29;20185;-76
2023/07/17 03:21:55;;;;;;;5.43;3.20;;;;;;;;;;4893939;29;20200;-76
2023/07/17 03:24:20;;;;;;;6.27;3.47;;;;;;;;;;4888530;29;20189;-76
2023/07/17 03:26:45;;;;;;;4.70;3.23;;;;;;;;;;4908308;29;20190;-76
2023/07/17 03:29:10;;;;;;;4.20;2.80;;;;;;;;;;4905374;29;20193;-76
2023/07/17 03:31:35;;;;;;;6.10;3.93;;;;;;;;;;4912962;29;20213;-76
2023/07/17 03:34:01;;;;;;;5.17;4.00;;;;;;;;;;4894465;29;20185;-76
2023/07/17 03:36:26;;;;;;;8.20;3.43;;;;;;;;;;4900205;29;20188;-76
2023/07/17 03:38:51;;;;;;;4.80;3.80;;;;;;;;;;4896094;29;20185;-76
2023/07/17 03:41:20;;;;;;;6.43;3.33;;;;;;;;;;4907516;29;20188;-76
2023/07/17 03:43:46;;;;;;;4.13;3.50;;;;;;;;;;4895112;29;20197;-76
2023/07/17 03:46:11;;;;;;;5.47;3.73;;;;;;;;;;4898379;29;20196;-76
2023/07/17 03:48:36;;;;;;;7.20;3.50;;;;;;;;;;4891034;29;20288;-76
2023/07/17 03:51:01;;;;;;;6.43;3.87;;;;;;;;;;4899141;29;20204;-76
2023/07/17 03:53:26;;;;;;;3.90;2.70;;;;;;;;;;4906956;29;20211;-76
2023/07/17 03:55:52;;;;;;;5.47;3.67;;;;;;;;;;4891698;29;20173;-75
2023/07/17 03:58:17;;;;;;;5.30;3.60;;;;;;;;;;4895734;29;20185;-76
2023/07/17 04:00:42;;;;;;;8.97;4.17;;;;;;;;;;4922062;29;20238;-76
2023/07/17 04:03:07;;;;;;;8.97;3.77;;;;;;;;;;4928331;29;20187;-76
2023/07/17 04:05:33;;;;;;;5.30;4.13;;;;;;;;;;4909534;29;20216;-76
2023/07/17 04:07:58;;;;;;;7.17;3.90;;;;;;;;;;4918652;29;20187;-76
2023/07/17 04:10:23;;;;;;;6.60;3.40;;;;;;;;;;4902664;29;20227;-77
2023/07/17 04:12:48;;;;;;;5.23;3.60;;;;;;;;;;4914454;29;20243;-77
2023/07/17 04:15:14;;;;;;;5.77;3.33;;;;;;;;;;4913047;29;20191;-77
2023/07/17 04:17:39;;;;;;;4.63;3.30;;;;;;;;;;4897840;29;20193;-77
2023/07/17 04:20:09;;;;;;;11.33;4.57;;;;;;;;;;4923304;29;20235;-77
2023/07/17 04:22:34;;;;;;;5.87;3.23;;;;;;;;;;4909604;29;20184;-77
2023/07/17 04:25:01;;;;;;;5.90;3.50;;;;;;;;;;4909495;29;20181;-77
2023/07/17 04:27:26;;;;;;;3.90;3.30;;;;;;;;;;4920520;29;20213;-77
2023/07/17 04:29:52;;;;;;;7.23;4.30;;;;;;;;;;4909189;29;20180;-77
2023/07/17 04:32:17;;;;;;;6.43;4.40;;;;;;;;;;4911371;29;20191;-77
2023/07/17 04:34:42;;;;;;;5.47;3.53;;;;;;;;;;4911892;29;20262;-77
2023/07/17 04:37:07;;;;;;;6.50;3.23;;;;;;;;;;4914532;29;20239;-77
2023/07/17 04:39:32;;;;;;;4.97;3.37;;;;;;;;;;4913055;29;20276;-77
2023/07/17 04:41:58;;;;;;;8.03;3.60;;;;;;;;;;4911498;29;20189;-76
2023/07/17 04:44:23;;;;;;;4.90;3.37;;;;;;;;;;4914518;29;20185;-77
2023/07/17 04:46:48;;;;;;;6.73;3.27;;;;;;;;;;4918274;29;20208;-77
2023/07/17 04:49:13;;;;;;;5.53;4.00;;;;;;;;;;4924761;29;20255;-77
2023/07/17 04:51:38;;;;;;;8.33;4.43;;;;;;;;;;4911257;29;20227;-77
2023/07/17 04:54:04;;;;;;;6.37;3.93;;;;;;;;;;4897135;29;20209;-76
2023/07/17 04:56:29;;;;;;;8.10;3.60;;;;;;;;;;4915325;29;20190;-77
2023/07/17 04:58:54;;;;;;;4.53;3.33;;;;;;;;;;4904142;29;20311;-77
2023/07/17 05:01:19;;;;;;;6.50;3.60;;;;;;;;;;4889035;29;20222;-76
2023/07/17 05:03:44;;;;;;;5.57;3.57;;;;;;;;;;4898754;29;20190;-77
2023/07/17 05:06:10;;;;;;;8.40;3.90;;;;;;;;;;4895412;29;20238;-77
2023/07/17 05:08:35;;;;;;;6.27;3.30;;;;;;;;;;4889796;29;20248;-77
2023/07/17 05:11:02;;;;;;;6.87;4.17;;;;;;;;;;4893800;29;20310;-77
2023/07/17 05:13:27;;;;;;;6.30;3.70;;;;;;;;;;4905659;29;20189;-77
2023/07/17 05:15:52;;;;;;;3.63;3.10;;;;;;;;;;4909966;29;20182;-76
2023/07/17 05:18:18;;;;;;;8.23;4.17;;;;;;;;;;4894391;29;20202;-77
2023/07/17 05:20:47;;;;;;;6.07;3.47;;;;;;;;;;4912464;29;20200;-77
2023/07/17 05:23:12;;;;;;;4.60;3.63;;;;;;;;;;4915175;29;20182;-77
2023/07/17 05:25:37;;;;;;;6.20;4.00;;;;;;;;;;4906005;29;20202;-77
2023/07/17 05:28:04;;;;;;;5.17;3.40;;;;;;;;;;4903615;29;20265;-77
2023/07/17 05:30:29;;;;;;;5.07;3.80;;;;;;;;;;4904231;29;20234;-77
2023/07/17 05:32:54;;;;;;;6.63;3.90;;;;;;;;;;4893814;29;20239;-77
2023/07/17 05:35:20;;;;;;;4.03;3.70;;;;;;;;;;4898833;29;20193;-77
2023/07/17 05:37:45;;;;;;;7.13;4.00;;;;;;;;;;4891835;29;20214;-77
2023/07/17 05:40:10;;;;;;;13.83;4.30;;;;;;;;;;4891902;29;20954;-77
2023/07/17 05:42:36;;;;;;;5.13;3.40;;;;;;;;;;4902285;29;20193;-77
2023/07/17 05:45:01;;;;;;;5.87;4.00;;;;;;;;;;4907314;29;20202;-77
2023/07/17 05:47:26;;;;;;;4.23;2.97;;;;;;;;;;4898296;29;20204;-77
2023/07/17 05:49:51;;;;;;;6.33;3.60;;;;;;;;;;4905477;29;20191;-77
2023/07/17 05:52:16;;;;;;;8.07;4.43;;;;;;;;;;4889349;29;20216;-77
2023/07/17 05:54:42;;;;;;;5.07;3.43;;;;;;;;;;4892743;29;20251;-77
2023/07/17 05:57:07;;;;;;;9.13;4.90;;;;;;;;;;4909895;29;20190;-77
2023/07/17 05:59:33;;;;;;;5.50;3.67;;;;;;;;;;4902059;29;20222;-76
2023/07/17 06:01:58;;;;;;;7.73;3.93;;;;;;;;;;4909570;29;20227;-76
2023/07/17 06:04:23;;;;;;;6.73;3.83;;;;;;;;;;4908048;29;20217;-77
2023/07/17 06:06:48;;;;;;;7.80;4.03;;;;;;;;;;4895065;29;20248;-76
2023/07/17 06:09:14;;;;;;;5.60;4.30;;;;;;;;;;4913882;29;20209;-76
2023/07/17 06:11:39;;;;;;;6.40;4.47;;;;;;;;;;4916765;29;20216;-76
2023/07/17 06:14:04;;;;;;;5.80;4.20;;;;;;;;;;4900854;29;20219;-76
2023/07/17 06:16:30;;;;;;;7.63;3.87;;;;;;;;;;4894249;29;20187;-77
2023/07/17 06:18:55;;;;;;;9.57;4.33;;;;;;;;;;4908314;29;20210;-76
2023/07/17 06:21:21;;;;;;;8.80;4.13;;;;;;;;;;4925201;29;20197;-76
2023/07/17 06:23:46;;;;;;;6.70;4.00;;;;;;;;;;4909481;29;20199;-76
2023/07/17 06:26:11;;;;;;;6.70;4.23;;;;;;;;;;4909942;29;20192;-76
2023/07/17 06:28:36;;;;;;;6.77;4.60;;;;;;;;;;4902031;29;20204;-75
2023/07/17 06:31:01;;;;;;;9.70;4.80;;;;;;;;;;4914704;29;20294;-78
2023/07/17 06:33:27;;;;;;;7.67;4.47;;;;;;;;;;4911084;29;20179;-76
2023/07/17 06:35:52;;;;;;;7.13;4.20;;;;;;;;;;4896307;29;20219;-76
2023/07/17 06:38:17;;;;;;;4.50;4.10;;;;;;;;;;4899094;29;20182;-76
2023/07/17 06:40:42;;;;;;;6.13;4.97;;;;;;;;;;4894330;29;20188;-76
2023/07/17 06:43:08;;;;;;;5.30;4.60;;;;;;;;;;4912150;29;20294;-76
2023/07/17 06:45:34;;;;;;;6.43;4.27;;;;;;;;;;4908310;29;20184;-76
2023/07/17 06:47:59;;;;;;;9.97;4.50;;;;;;;;;;4906664;29;20180;-76
2023/07/17 06:50:24;;;;;;;6.70;5.10;;;;;;;;;;4907111;29;20213;-76
2023/07/17 06:52:49;;;;;;;8.07;4.87;;;;;;;;;;4907918;29;20317;-76
2023/07/17 06:55:16;;;;;;;7.27;4.33;;;;;;;;;;4915874;29;20176;-76
2023/07/17 06:57:41;;;;;;;7.60;4.50;;;;;;;;;;4902905;29;20193;-75
2023/07/17 07:00:06;;;;;;;6.97;5.30;;;;;;;;;;4917116;29;20220;-76
2023/07/17 07:02:32;;;;;;;6.50;4.47;;;;;;;;;;4897358;29;20185;-75
2023/07/17 07:04:57;;;;;;;11.10;5.60;;;;;;;;;;4917662;29;20185;-76
2023/07/17 07:07:22;;;;;;;7.67;5.13;;;;;;;;;;4913507;29;20181;-76
2023/07/17 07:09:47;;;;;;;6.40;5.00;;;;;;;;;;4911626;29;20210;-77
2023/07/17 07:12:13;;;;;;;5.97;4.43;;;;;;;;;;4915660;29;20208;-75
2023/07/17 07:14:38;;;;;;;6.13;4.60;;;;;;;;;;4908310;29;20194;-76
2023/07/17 07:17:03;;;;;;;6.77;5.13;;;;;;;;;;4914892;29;20182;-76
2023/07/17 07:19:29;;;;;;;6.07;5.00;;;;;;;;;;4912009;29;20183;-76
2023/07/17 07:21:54;;;;;;;12.37;6.00;;;;;;;;;;4895659;29;20218;-76
2023/07/17 07:24:19;;;;;;;7.03;5.23;;;;;;;;;;4898882;29;20254;-76
2023/07/17 07:26:44;;;;;;;7.13;4.93;;;;;;;;;;4918284;29;20193;-76
2023/07/17 07:29:10;;;;;;;6.60;5.00;;;;;;;;;;4920025;29;20182;-76
2023/07/17 07:31:35;;;;;;;7.00;4.70;;;;;;;;;;4923320;29;20342;-76
2023/07/17 07:34:00;;;;;;;6.07;4.17;;;;;;;;;;4911884;29;20269;-76
2023/07/17 07:36:28;;;;;;;7.63;4.87;;;;;;;;;;4909794;29;20268;-76
2023/07/17 07:38:53;;;;;;;5.60;5.03;;;;;;;;;;4924320;29;20190;-75
2023/07/17 07:41:18;;;;;;;11.97;4.93;;;;;;;;;;4915222;29;20233;-76
2023/07/17 07:43:43;;;;;;;6.93;4.83;;;;;;;;;;4896091;29;20236;-76
2023/07/17 07:46:09;;;;;;;7.07;4.93;;;;;;;;;;4917472;29;20193;-76
2023/07/17 07:48:34;;;;;;;5.20;4.70;;;;;;;;;;4901296;29;20190;-76
2023/07/17 07:50:59;;;;;;;6.87;5.23;;;;;;;;;;4912783;29;20206;-75
2023/07/17 07:53:24;;;;;;;6.60;4.63;;;;;;;;;;4895254;29;20208;-76
2023/07/17 07:55:50;;;;;;;6.63;5.07;;;;;;;;;;4909515;29;20190;-76
2023/07/17 07:58:15;;;;;;;5.10;4.60;;;;;;;;;;4904984;29;20184;-76
2023/07/17 08:00:40;;;;;;;6.37;5.33;;;;;;;;;;4915511;29;20237;-76
2023/07/17 08:03:05;;;;;;;15.00;6.07;;;;;;;;;;4913258;29;20200;-76
2023/07/17 08:05:30;;;;;;;6.60;5.00;;;;;;;;;;4897835;29;20191;-76
2023/07/17 08:07:56;;;;;;;6.90;4.53;;;;;;;;;;4926938;29;20181;-76
2023/07/17 08:10:21;;;;;;;6.53;5.00;;;;;;;;;;4902667;29;20213;-76
2023/07/17 08:12:46;;;;;;;6.97;5.13;;;;;;;;;;4905807;29;20192;-76
2023/07/17 08:15:11;;;;;;;5.67;4.90;;;;;;;;;;4910052;29;20190;-75
2023/07/17 08:17:37;;;;;;;6.10;5.23;;;;;;;;;;4912715;29;20219;-76
2023/07/17 08:20:04;;;;;;;12.87;6.43;;;;;;;;;;4907199;29;20205;-76
2023/07/17 08:22:29;;;;;;;6.67;4.63;;;;;;;;;;4910827;29;20204;-76
2023/07/17 08:24:54;;;;;;;8.40;5.63;;;;;;;;;;4911445;29;20184;-76
2023/07/17 08:27:19;;;;;;;6.03;4.70;;;;;;;;;;4912309;29;20184;-76
2023/07/17 08:29:44;;;;;;;7.87;5.47;;;;;;;;;;4915477;29;20286;-76
2023/07/17 08:32:10;;;;;;;8.07;4.80;;;;;;;;;;4911516;29;20199;-76
2023/07/17 08:34:35;;;;;;;6.40;4.80;;;;;;;;;;4912620;29;20186;-76
2023/07/17 08:37:01;;;;;;;6.53;4.70;;;;;;;;;;4906600;29;20268;-76
2023/07/17 08:39:26;;;;;;;6.90;5.50;;;;;;;;;;4894505;29;20181;-76
2023/07/17 08:41:52;;;;;;;15.93;8.00;;;;;;;;;;4905352;29;20208;-76
2023/07/17 08:44:17;;;;;;;8.23;5.10;;;;;;;;;;4913735;29;20186;-76
2023/07/17 08:46:42;;;;;;;5.90;5.30;;;;;;;;;;4903721;29;20197;-76
2023/07/17 08:49:08;;;;;;;5.20;4.70;;;;;;;;;;4912657;29;20234;-76
2023/07/17 08:51:33;;;;;;;7.10;5.60;;;;;;;;;;4912621;29;20214;-76
2023/07/17 08:53:59;;;;;;;6.87;5.67;;;;;;;;;;4910709;29;20203;-76
2023/07/17 08:56:25;;;;;;;5.93;4.57;;;;;;;;;;4895102;29;20216;-76
2023/07/17 08:58:51;;;;;;;6.60;4.87;;;;;;;;;;4911067;29;20264;-76
2023/07/17 09:01:17;;;;;;;6.03;5.43;;;;;;;;;;4906401;29;20185;-76
2023/07/17 09:03:42;;;;;;;10.67;6.00;;;;;;;;;;4913851;29;20194;-76
2023/07/17 09:06:12;;;;;;;10.43;5.03;;;;;;;;;;4917928;29;20252;-76
2023/07/17 09:08:37;;;;;;;6.37;5.07;;;;;;;;;;4908609;29;20191;-76
2023/07/17 09:11:07;;;;;;;6.07;4.93;;;;;;;;;;4912816;29;20279;-76
2023/07/17 09:13:36;;;;;;;5.33;4.80;;;;;;;;;;4915678;29;20250;-76
2023/07/17 09:16:13;;;;;;;6.97;5.17;;;;;;;;;;4910641;29;20193;-76
2023/07/17 09:18:38;;;;;;;8.13;5.57;;;;;;;;;;4914059;29;20183;-76
2023/07/17 09:21:04;;;;;;;7.67;5.30;;;;;;;;;;4908400;29;20180;-76
2023/07/17 09:23:36;;;;;;;7.97;5.10;;;;;;;;;;4914041;29;20181;-76
2023/07/17 09:26:03;;;;;;;6.30;4.97;;;;;;;;;;4894465;29;20192;-76
2023/07/17 09:28:29;;;;;;;6.93;5.27;;;;;;;;;;4905417;29;20295;-76
2023/07/17 09:31:03;;;;;;;7.03;5.00;;;;;;;;;;4906460;29;20214;-76
2023/07/17 09:33:29;;;;;;;7.80;4.83;;;;;;;;;;4911993;29;20209;-75
2023/07/17 09:35:55;;;;;;;5.73;4.43;;;;;;;;;;4914581;29;20207;-76
2023/07/17 09:38:22;;;;;;;5.80;5.07;;;;;;;;;;4910024;29;20238;-76
2023/07/17 09:40:47;;;;;;;6.00;4.80;;;;;;;;;;4909794;29;20211;-76
2023/07/17 09:43:12;;;;;;;6.83;5.30;;;;;;;;;;4910769;29;20218;-76
2023/07/17 09:45:38;;;;;;;6.27;4.30;;;;;;;;;;4911397;29;20190;-74
2023/07/17 09:48:04;;;;;;;5.00;4.53;;;;;;;;;;4911069;29;20273;-74
2023/07/17 09:50:30;;;;;;;7.90;5.00;;;;;;;;;;4906439;29;20206;-74
2023/07/17 09:52:56;;;;;;;7.07;4.55;;;;;;;;;;4902382;29;20206;-74
2023/07/17 09:55:24;;;;;;;7.33;5.37;;;;;;;;;;4907302;29;20269;-74
2023/07/17 09:57:51;;;;;;;6.75;4.88;;;;;;;;;;4917845;29;20187;-74
2023/07/17 10:00:19;;;;;;;5.43;4.40;;;;;;;;;;4907209;29;20222;-74
2023/07/17 10:02:53;;;;;;;6.70;4.70;;;;;;;;;;4909247;29;20190;-74
2023/07/17 10:05:19;;;;;;;5.37;4.87;;;;;;;;;;4912699;29;20185;-74
2023/07/17 10:07:46;;;;;;;5.38;4.65;;;;;;;;;;4903057;29;20191;-74
2023/07/17 10:10:12;;;;;;;7.80;4.60;;;;;;;;;;4908608;29;20191;-74
2023/07/17 10:12:38;;;;;;;6.35;4.60;;;;;;;;;;4906574;29;20197;-74
2023/07/17 10:15:04;;;;;;;5.18;4.68;;;;;;;;;;4911655;29;20177;-74
2023/07/17 10:17:32;;;;;;;8.27;5.03;;;;;;;;;;4904828;29;20179;-74
2023/07/17 10:19:59;;;;;;;9.63;4.95;;;;;;;;;;4909784;29;20198;-74
2023/07/17 10:22:30;;;;;;;6.63;5.38;;;;;;;;;;4910997;29;20183;-74
2023/07/17 10:24:55;;;;;;;5.13;4.63;;;;;;;;;;4908752;29;20214;-74
2023/07/17 10:27:37;;;;;;;6.82;4.85;;;;;;;;;;4913317;29;20211;-74
2023/07/17 10:30:20;;;;;;;7.47;4.53;;;;;;;;;;4913608;29;20190;-74
2023/07/17 10:32:45;;;;;;;6.70;4.95;;;;;;;;;;4895419;29;20202;-74
2023/07/17 10:35:20;;;;;;;7.15;4.90;;;;;;;;;;4915182;29;20191;-74
2023/07/17 10:37:45;;;;;;;5.53;4.70;;;;;;;;;;4917565;29;20279;-74
2023/07/17 10:40:27;;;;;;;6.28;4.18;;;;;;;;;;4903997;29;20190;-75
2023/07/17 10:42:52;;;;;;;7.32;5.07;;;;;;;;;;4905195;29;20269;-74
2023/07/17 10:45:18;;;;;;;7.82;5.13;;;;;;;;;;4918847;29;20262;-74
2023/07/17 10:47:47;;;;;;;6.82;4.72;;;;;;;;;;4917421;29;20178;-74
2023/07/17 10:50:13;;;;;;;7.63;4.68;;;;;;;;;;4914081;29;20224;-74
2023/07/17 10:52:38;;;;;;;7.15;4.47;;;;;;;;;;4908375;29;20199;-74
2023/07/17 10:55:04;;;;;;;4.70;4.28;;;;;;;;;;4917025;29;20268;-74
2023/07/17 10:57:29;;;;;;;4.78;4.22;;;;;;;;;;4915512;29;20183;-74
2023/07/17 10:59:55;;;;;;;5.78;4.68;;;;;;;;;;4917342;29;20260;-74
2023/07/17 11:02:22;;;;;;;5.43;4.63;;;;;;;;;;4899406;29;20321;-75
2023/07/17 11:04:52;;;;;;;6.30;4.60;;;;;;;;;;4901541;29;20226;-74
2023/07/17 11:07:17;;;;;;;5.78;4.60;;;;;;;;;;4894552;29;20183;-74
2023/07/17 11:09:43;;;;;;;5.72;4.05;;;;;;;;;;4914578;29;20193;-74
2023/07/17 11:12:08;;;;;;;5.10;4.38;;;;;;;;;;4914386;29;20346;-74
2023/07/17 11:14:33;;;;;;;6.90;4.45;;;;;;;;;;4899086;29;20206;-74
2023/07/17 11:16:58;;;;;;;8.73;4.47;;;;;;;;;;4897908;29;20194;-74
2023/07/17 11:19:24;;;;;;;5.57;4.25;;;;;;;;;;4909674;29;20258;-74
2023/07/17 11:21:50;;;;;;;6.13;4.07;;;;;;;;;;4902402;29;20197;-75
2023/07/17 11:24:15;;;;;;;4.80;3.90;;;;;;;;;;4914306;29;20179;-75
2023/07/17 11:26:40;;;;;;;7.68;4.68;;;;;;;;;;4908856;29;20270;-74
2023/07/17 11:29:05;;;;;;;6.03;3.92;;;;;;;;;;4919620;29;20217;-74
2023/07/17 11:31:32;;;;;;;5.75;4.65;;;;;;;;;;4915900;29;20281;-74
2023/07/17 11:34:11;;;;;;;3.80;3.50;;;;;;;;;;4909042;29;20189;-74
2023/07/17 11:36:43;;;;;;;5.28;4.03;;;;;;;;;;4922314;29;20182;-74
2023/07/17 11:39:11;;;;;;;6.53;4.10;;;;;;;;;;4911692;29;20195;-74
2023/07/17 11:41:56;;;;;;;6.68;4.93;;;;;;;;;;4910723;29;20245;-74
2023/07/17 11:44:24;;;;;;;4.63;4.10;;;;;;;;;;4915902;29;20198;-74
2023/07/17 11:46:51;;;;;;;6.60;4.57;;;;;;;;;;4909462;29;20179;-74
2023/07/17 11:49:17;;;;;;;4.63;4.22;;;;;;;;;;4906311;29;20183;-74
2023/07/17 11:51:42;;;;;;;10.07;4.70;;;;;;;;;;4913012;29;20276;-74
2023/07/17 11:54:08;;;;;;;6.85;4.45;;;;;;;;;;4905782;29;20203;-74
2023/07/17 11:56:43;;;;;;;4.93;4.43;;;;;;;;;;4915554;29;20175;-74
2023/07/17 11:59:18;;;;;;;7.05;4.97;;;;;;;;;;4893748;29;20242;-74
2023/07/17 12:01:43;;;;;;;5.22;4.38;;;;;;;;;;4896552;29;20246;-74
2023/07/17 12:04:21;;;;;;;5.32;4.30;;;;;;;;;;4893637;29;20275;-74
2023/07/17 12:06:47;;;;;;;5.32;4.65;;;;;;;;;;4919868;29;20285;-74
2023/07/17 12:09:12;;;;;;;4.90;4.40;;;;;;;;;;4887061;29;20259;-75
2023/07/17 12:11:39;;;;;;;5.30;4.80;;;;;;;;;;4890790;29;20212;-75
2023/07/17 12:14:04;;;;;;;5.30;4.07;;;;;;;;;;4898254;29;20190;-75
2023/07/17 12:16:30;;;;;;;7.65;5.00;;;;;;;;;;4895518;29;20169;-74
2023/07/17 12:18:55;;;;;;;4.80;3.97;;;;;;;;;;4912482;29;20232;-74
2023/07/17 12:21:20;;;;;;;5.90;4.63;;;;;;;;;;4891409;29;20195;-74
2023/07/17 12:23:45;;;;;;;4.93;4.35;;;;;;;;;;4891553;29;20192;-74
2023/07/17 12:26:10;;;;;;;5.15;4.10;;;;;;;;;;4897396;29;20198;-75
2023/07/17 12:28:36;;;;;;;6.03;4.50;;;;;;;;;;4892344;29;20188;-74
2023/07/17 12:31:01;;;;;;;6.57;4.45;;;;;;;;;;4901771;29;20211;-74
2023/07/17 12:33:26;;;;;;;5.15;4.68;;;;;;;;;;4910311;29;20179;-74
2023/07/17 12:35:51;;;;;;;5.72;3.92;;;;;;;;;;4896135;29;20179;-75
2023/07/17 12:38:16;;;;;;;5.18;4.30;;;;;;;;;;4906089;29;20267;-74
2023/07/17 12:40:42;;;;;;;5.82;4.13;;;;;;;;;;4894361;29;20211;-75
2023/07/17 12:43:07;;;;;;;6.32;4.43;;;;;;;;;;4895441;29;20222;-74
2023/07/17 12:45:32;;;;;;;4.97;4.38;;;;;;;;;;4897311;29;20270;-74
2023/07/17 12:47:57;;;;;;;7.13;4.40;;;;;;;;;;4890894;29;20199;-75
2023/07/17 12:50:23;;;;;;;6.55;4.63;;;;;;;;;;4895327;29;20191;-74
2023/07/17 12:52:48;;;;;;;4.90;4.05;;;;;;;;;;4889003;29;20264;-74
2023/07/17 12:55:13;;;;;;;4.78;3.70;;;;;;;;;;4895295;29;20198;-74
2023/07/17 12:57:39;;;;;;;5.65;4.18;;;;;;;;;;4895974;29;20180;-75
2023/07/17 13:00:04;;;;;;;5.97;4.32;;;;;;;;;;4895450;29;20223;-74
2023/07/17 13:02:30;;;;;;;5.97;4.40;;;;;;;;;;4906440;29;20184;-74
2023/07/17 13:04:55;;;;;;;4.45;3.67;;;;;;;;;;4897443;29;20190;-74
2023/07/17 13:07:20;;;;;;;5.68;4.47;;;;;;;;;;4895241;29;20187;-74
2023/07/17 13:09:45;;;;;;;5.82;4.53;;;;;;;;;;4892795;29;20198;-74
2023/07/17 13:12:11;;;;;;;5.45;4.15;;;;;;;;;;4894363;29;20219;-75
2023/07/17 13:14:36;;;;;;;6.47;3.90;;;;;;;;;;4893458;29;20183;-75
2023/07/17 13:17:02;;;;;;;4.50;4.00;;;;;;;;;;4907115;29;20184;-75
2023/07/17 13:19:28;;;;;;;7.15;4.13;;;;;;;;;;4897374;29;20259;-74
2023/07/17 13:21:53;;;;;;;7.15;5.25;;;;;;;;;;4892088;29;20267;-74
2023/07/17 13:24:20;;;;;;;6.18;4.57;;;;;;;;;;4896100;29;20184;-74
2023/07/17 13:26:45;;;;;;;5.15;4.47;;;;;;;;;;4891242;29;20180;-74
2023/07/17 13:29:11;;;;;;;4.10;3.70;;;;;;;;;;4890497;29;20251;-72
2023/07/17 13:31:36;;;;;;;6.22;4.40;;;;;;;;;;4902591;29;20222;-72
2023/07/17 13:34:01;;;;;;;6.60;4.85;;;;;;;;;;4900945;29;20190;-71
2023/07/17 13:36:26;;;;;;;4.75;3.85;;;;;;;;;;4892106;29;20190;-72
2023/07/17 13:38:52;;;;;;;7.65;4.90;;;;;;;;;;4886308;29;20184;-72
2023/07/17 13:41:36;;;;;;;8.60;4.15;;;;;;;;;;4904813;29;20215;-72
2023/07/17 13:44:01;;;;;;;5.50;4.45;;;;;;;;;;4898499;29;20242;-72
2023/07/17 13:46:26;;;;;;;6.15;3.58;;;;;;;;;;4902344;29;20182;-71
2023/07/17 13:48:51;;;;;;;7.00;4.47;;;;;;;;;;4897906;29;20192;-72
2023/07/17 13:51:16;;;;;;;6.43;3.85;;;;;;;;;;4887152;29;20286;-72
2023/07/17 13:53:42;;;;;;;4.82;4.25;;;;;;;;;;4887641;29;20210;-72
2023/07/17 13:56:07;;;;;;;3.95;3.55;;;;;;;;;;4904247;29;20183;-72
2023/07/17 13:58:32;;;;;;;7.20;4.35;;;;;;;;;;4895639;29;20191;-72
2023/07/17 14:00:57;;;;;;;7.97;4.88;;;;;;;;;;4914238;29;20234;-72
2023/07/17 14:03:22;;;;;;;5.82;4.28;;;;;;;;;;4906375;29;20191;-72
2023/07/17 14:05:48;;;;;;;6.38;4.38;;;;;;;;;;4913700;29;20187;-71
2023/07/17 14:08:13;;;;;;;6.65;4.20;;;;;;;;;;4915325;29;20190;-72
2023/07/17 14:10:38;;;;;;;5.05;4.63;;;;;;;;;;4909316;29;20202;-72
2023/07/17 14:13:03;;;;;;;5.82;4.55;;;;;;;;;;4890485;29;20265;-72
2023/07/17 14:15:28;;;;;;;4.65;3.45;;;;;;;;;;4909582;29;20179;-71
2023/07/17 14:17:54;;;;;;;4.13;3.72;;;;;;;;;;4893206;29;20207;-72
2023/07/17 14:20:19;;;;;;;7.07;4.85;;;;;;;;;;4914847;29;20214;-72
2023/07/17 14:22:45;;;;;;;5.53;5.00;;;;;;;;;;4911597;29;20195;-72
2023/07/17 14:25:10;;;;;;;5.75;4.00;;;;;;;;;;4910977;29;20188;-72
2023/07/17 14:27:35;;;;;;;8.48;4.70;;;;;;;;;;4909274;29;20263;-72
2023/07/17 14:30:00;;;;;;;5.13;4.35;;;;;;;;;;4897861;29;20183;-72
2023/07/17 14:32:25;;;;;;;5.13;4.57;;;;;;;;;;4909379;29;20207;-72
2023/07/17 14:34:51;;;;;;;5.32;4.45;;;;;;;;;;4920333;29;20205;-72